Time;durP1;ratioP1;P1;durP2;ratioP2;P2;SDS_P1;SDS_P2;PMS_P1;PMS_P2;Temp;Humidity;BMP_temperature;BMP_pressure;BME280_temperature;BME280_humidity;BME280_pressure;Samples;Min_cycle;Max_cycle;Signal;HPM_P1;HPM_P2
2023/08/26 00:01:41;;;;;;;18.05;14.55;;;17.70;99.90;;;;;;5136029;27;20051;-78
2023/08/26 00:04:07;;;;;;;17.90;14.07;;;17.60;99.90;;;;;;5136573;27;20491;-76
2023/08/26 00:06:34;;;;;;;13.77;12.35;;;17.60;99.90;;;;;;5118193;27;20108;-77
2023/08/26 00:09:00;;;;;;;15.05;13.55;;;17.50;99.90;;;;;;5118291;27;20047;-78
2023/08/26 00:11:26;;;;;;;17.02;14.85;;;17.50;99.90;;;;;;5136314;27;20039;-76
2023/08/26 00:13:52;;;;;;;18.35;13.98;;;17.50;99.90;;;;;;5135700;27;20054;-77
2023/08/26 00:16:18;;;;;;;15.90;14.27;;;17.40;99.90;;;;;;5136407;27;20043;-75
2023/08/26 00:18:45;;;;;;;16.63;14.85;;;17.30;99.90;;;;;;5136488;27;20043;-77
2023/08/26 00:21:12;;;;;;;17.50;13.80;;;17.30;99.90;;;;;;5136801;27;20073;-77
2023/08/26 00:23:37;;;;;;;17.65;13.43;;;17.30;99.90;;;;;;5100994;27;20039;-76
2023/08/26 00:26:03;;;;;;;18.45;12.98;;;17.20;99.90;;;;;;5135950;27;20051;-75
2023/08/26 00:28:29;;;;;;;14.48;12.77;;;17.10;99.90;;;;;;5135684;27;20054;-76
2023/08/26 00:30:59;;;;;;;14.90;11.13;;;17.20;99.90;;;;;;5117921;27;20134;-77
2023/08/26 00:33:28;;;;;;;18.45;14.90;;;17.10;99.90;;;;;;5117464;27;20054;-77
2023/08/26 00:35:55;;;;;;;15.40;13.02;;;17.10;99.90;;;;;;5136182;27;20454;-76
2023/08/26 00:38:21;;;;;;;18.05;15.65;;;17.10;99.90;;;;;;5135652;27;20049;-76
2023/08/26 00:40:46;;;;;;;15.20;11.32;;;17.10;99.90;;;;;;5135698;27;20038;-77
2023/08/26 00:43:12;;;;;;;16.20;13.25;;;17.10;99.90;;;;;;5135153;27;20097;-77
2023/08/26 00:45:43;;;;;;;20.55;13.88;;;17.10;99.90;;;;;;5135471;27;20125;-76
2023/08/26 00:48:11;;;;;;;15.43;13.05;;;17.10;99.90;;;;;;5135888;27;20110;-76
2023/08/26 00:50:41;;;;;;;16.85;13.55;;;17.10;99.90;;;;;;5135336;27;20096;-75
2023/08/26 00:53:09;;;;;;;15.23;11.77;;;17.10;99.90;;;;;;5135364;27;20070;-79
2023/08/26 00:55:36;;;;;;;15.73;11.85;;;17.00;99.90;;;;;;5135231;27;20111;-76
2023/08/26 00:58:02;;;;;;;12.60;11.30;;;17.10;99.90;;;;;;5117653;27;20055;-76
2023/08/26 01:00:29;;;;;;;15.60;13.07;;;17.00;99.90;;;;;;5135588;27;20051;-77
2023/08/26 01:02:55;;;;;;;13.32;11.75;;;17.00;99.90;;;;;;5135450;27;20046;-76
2023/08/26 01:05:22;;;;;;;14.07;11.23;;;17.00;99.90;;;;;;5135086;27;20047;-76
2023/08/26 01:07:48;;;;;;;16.52;11.48;;;16.90;99.90;;;;;;5134978;27;20057;-77
2023/08/26 01:10:15;;;;;;;17.33;12.25;;;17.00;99.90;;;;;;5135283;27;20051;-77
2023/08/26 01:13:04;;;;;;;13.30;11.48;;;16.90;99.90;;;;;;5117414;27;20051;-79
2023/08/26 01:15:31;;;;;;;13.85;11.55;;;16.90;99.90;;;;;;5134826;27;20055;-76
2023/08/26 01:17:59;;;;;;;13.98;11.43;;;16.90;99.90;;;;;;5135440;27;20150;-76
2023/08/26 01:20:25;;;;;;;13.15;9.90;;;16.90;99.90;;;;;;5115781;27;20054;-77
2023/08/26 01:22:55;;;;;;;11.40;8.65;;;16.80;99.90;;;;;;5135156;27;20085;-76
2023/08/26 01:25:21;;;;;;;18.52;10.27;;;16.90;99.90;;;;;;5134612;27;20074;-76
2023/08/26 01:27:47;;;;;;;9.73;7.97;;;16.80;99.90;;;;;;5117034;27;20042;-76
2023/08/26 01:30:13;;;;;;;8.82;7.93;;;16.70;99.90;;;;;;5134719;27;20096;-77
2023/08/26 01:32:54;;;;;;;11.48;8.10;;;16.70;99.90;;;;;;5134521;27;20088;-77
2023/08/26 01:35:28;;;;;;;12.00;8.20;;;16.70;99.90;;;;;;5134502;27;20043;-72
2023/08/26 01:37:54;;;;;;;12.50;8.57;;;16.70;99.90;;;;;;5134930;27;20095;-77
2023/08/26 01:40:22;;;;;;;9.65;7.47;;;16.70;99.90;;;;;;5134371;27;20051;-78
2023/08/26 01:42:48;;;;;;;11.20;7.93;;;16.70;99.90;;;;;;5116617;27;20082;-76
2023/08/26 01:45:14;;;;;;;11.32;7.55;;;16.70;99.90;;;;;;5134202;27;20499;-79
2023/08/26 01:47:39;;;;;;;10.25;7.03;;;16.70;99.90;;;;;;5134231;27;20043;-78
2023/08/26 01:50:05;;;;;;;9.90;7.75;;;16.60;99.90;;;;;;5134197;27;20043;-80
2023/08/26 01:52:31;;;;;;;13.07;7.45;;;16.70;99.90;;;;;;5116023;27;20079;-78
2023/08/26 01:54:57;;;;;;;8.95;7.00;;;16.60;99.90;;;;;;5134072;27;20089;-75
2023/08/26 01:57:22;;;;;;;7.45;6.65;;;16.60;99.90;;;;;;5115671;27;20047;-77
2023/08/26 01:59:48;;;;;;;8.93;7.18;;;16.60;99.90;;;;;;5133853;27;20122;-76
2023/08/26 02:02:14;;;;;;;7.70;6.65;;;16.60;99.90;;;;;;5134491;27;20039;-80
2023/08/26 02:04:40;;;;;;;10.30;6.35;;;16.60;99.90;;;;;;5115747;27;20454;-77
2023/08/26 02:07:06;;;;;;;9.90;6.35;;;16.50;99.90;;;;;;5134130;27;20043;-79
2023/08/26 02:09:33;;;;;;;11.18;6.80;;;16.50;99.90;;;;;;5134061;27;20042;-75
2023/08/26 02:11:59;;;;;;;7.50;6.72;;;16.50;99.90;;;;;;5115880;27;20047;-76
2023/08/26 02:14:25;;;;;;;8.20;6.75;;;16.40;99.90;;;;;;5133919;27;20039;-77
2023/08/26 02:16:51;;;;;;;8.88;6.32;;;16.40;99.90;;;;;;5115633;27;20047;-76
2023/08/26 02:19:16;;;;;;;7.93;6.60;;;16.30;99.90;;;;;;5115619;28;20051;-77
2023/08/26 02:21:42;;;;;;;9.07;7.70;;;16.20;99.90;;;;;;5134878;27;20043;-75
2023/08/26 02:24:08;;;;;;;10.95;7.70;;;16.20;99.90;;;;;;5115971;27;20114;-75
2023/08/26 02:26:33;;;;;;;8.90;6.78;;;16.10;99.90;;;;;;5134203;27;20434;-77
2023/08/26 02:28:59;;;;;;;9.32;7.05;;;16.10;99.90;;;;;;5134653;27;20077;-79
2023/08/26 02:31:25;;;;;;;7.68;6.90;;;16.10;99.90;;;;;;5133504;27;20444;-76
2023/08/26 02:33:50;;;;;;;9.10;7.38;;;16.00;99.90;;;;;;5133855;27;20031;-76
2023/08/26 02:36:16;;;;;;;7.38;6.63;;;16.00;99.90;;;;;;5116045;28;20464;-76
2023/08/26 02:38:42;;;;;;;7.80;6.97;;;15.90;99.90;;;;;;5133795;28;20093;-75
2023/08/26 02:41:07;;;;;;;8.77;6.53;;;15.80;99.90;;;;;;5133659;28;20047;-75
2023/08/26 02:43:33;;;;;;;8.10;6.15;;;15.80;99.90;;;;;;5133540;28;20035;-75
2023/08/26 02:45:59;;;;;;;8.63;6.43;;;15.70;99.90;;;;;;5133974;28;20047;-75
2023/08/26 02:48:26;;;;;;;7.47;6.38;;;15.70;99.90;;;;;;5133366;28;20043;-75
2023/08/26 02:50:59;;;;;;;7.40;6.63;;;15.60;99.90;;;;;;5133885;28;20082;-79
2023/08/26 02:53:26;;;;;;;7.78;6.97;;;15.60;99.90;;;;;;5134169;28;20065;-76
2023/08/26 02:55:53;;;;;;;8.70;6.63;;;15.50;99.90;;;;;;5115420;28;20079;-77
2023/08/26 02:58:19;;;;;;;7.57;5.85;;;15.40;99.90;;;;;;5133447;28;20154;-76
2023/08/26 03:00:46;;;;;;;8.15;6.80;;;15.40;99.90;;;;;;5134419;28;20047;-77
2023/08/26 03:03:12;;;;;;;8.90;7.28;;;15.40;99.90;;;;;;5136055;28;20129;-76
2023/08/26 03:05:38;;;;;;;7.68;6.88;;;15.40;99.90;;;;;;5136283;28;20051;-73
2023/08/26 03:08:04;;;;;;;9.07;6.10;;;15.20;99.90;;;;;;5136283;28;20043;-76
2023/08/26 03:10:31;;;;;;;8.43;6.88;;;15.20;99.90;;;;;;5134930;28;20050;-77
2023/08/26 03:12:56;;;;;;;8.23;6.68;;;15.20;99.90;;;;;;5133790;28;20047;-75
2023/08/26 03:15:27;;;;;;;9.48;6.85;;;15.20;99.90;;;;;;5133617;28;20051;-76
2023/08/26 03:17:53;;;;;;;9.45;7.38;;;15.10;99.90;;;;;;5133718;28;20058;-75
2023/08/26 03:20:19;;;;;;;8.98;7.50;;;15.10;99.90;;;;;;5115857;28;20039;-75
2023/08/26 03:22:45;;;;;;;8.73;7.78;;;15.20;99.90;;;;;;5133337;28;20074;-75
2023/08/26 03:25:12;;;;;;;9.23;6.95;;;15.10;99.90;;;;;;5133517;28;20057;-76
2023/08/26 03:27:37;;;;;;;10.50;7.55;;;15.10;99.90;;;;;;5115120;28;20055;-76
2023/08/26 03:30:03;;;;;;;9.32;7.22;;;15.00;99.90;;;;;;5133260;28;20126;-75
2023/08/26 03:32:29;;;;;;;10.85;7.65;;;15.00;99.90;;;;;;5133089;28;20043;-80
2023/08/26 03:34:55;;;;;;;7.75;6.95;;;14.90;99.90;;;;;;5114831;28;20502;-76
2023/08/26 03:37:20;;;;;;;10.73;7.90;;;14.80;99.90;;;;;;5115374;28;20047;-76
2023/08/26 03:39:46;;;;;;;8.35;7.20;;;14.80;99.90;;;;;;5133235;28;20118;-76
2023/08/26 03:42:12;;;;;;;8.32;7.20;;;14.70;99.90;;;;;;5133376;27;20476;-76
2023/08/26 03:44:37;;;;;;;8.07;6.78;;;14.70;99.90;;;;;;5135989;27;20046;-76
2023/08/26 03:47:03;;;;;;;7.13;6.35;;;14.70;99.90;;;;;;5137136;27;20097;-75
2023/08/26 03:49:30;;;;;;;10.18;9.07;;;14.60;99.90;;;;;;5136552;27;20043;-77
2023/08/26 03:51:56;;;;;;;8.10;6.68;;;14.60;99.90;;;;;;5136700;27;20521;-78
2023/08/26 03:54:21;;;;;;;10.20;8.20;;;14.50;99.90;;;;;;5118350;27;20043;-75
2023/08/26 03:56:47;;;;;;;10.48;8.32;;;15.10;99.90;;;;;;5136740;27;20046;-76
2023/08/26 03:59:13;;;;;;;8.38;7.43;;;14.50;99.90;;;;;;5136418;27;20475;-76
2023/08/26 04:01:39;;;;;;;9.43;7.53;;;14.50;99.90;;;;;;5136456;27;20043;-75
2023/08/26 04:04:05;;;;;;;8.73;7.32;;;14.50;99.90;;;;;;5136849;27;20058;-78
2023/08/26 04:06:31;;;;;;;11.70;8.73;;;14.40;99.90;;;;;;5136323;27;20510;-76
2023/08/26 04:08:57;;;;;;;9.60;7.45;;;14.40;99.90;;;;;;5118481;27;20054;-76
2023/08/26 04:11:23;;;;;;;9.07;7.63;;;14.40;99.90;;;;;;5117665;27;20047;-75
2023/08/26 04:13:49;;;;;;;9.63;7.43;;;14.30;99.90;;;;;;5136051;27;20138;-77
2023/08/26 04:16:19;;;;;;;8.73;7.30;;;14.30;99.90;;;;;;5136392;27;20087;-76
2023/08/26 04:18:45;;;;;;;8.68;7.63;;;14.30;99.90;;;;;;5136305;27;20425;-76
2023/08/26 04:21:10;;;;;;;9.35;8.32;;;14.30;99.90;;;;;;5136224;27;20045;-77
2023/08/26 04:23:36;;;;;;;9.02;6.78;;;14.30;99.90;;;;;;5135818;27;20533;-75
2023/08/26 04:26:04;;;;;;;9.95;7.63;;;14.20;99.90;;;;;;5135905;27;20050;-77
2023/08/26 04:28:30;;;;;;;8.57;7.18;;;14.10;99.90;;;;;;5135873;27;20557;-76
2023/08/26 04:30:58;;;;;;;11.50;8.50;;;14.10;99.90;;;;;;5136052;27;20043;-77
2023/08/26 04:33:24;;;;;;;9.73;6.47;;;14.00;99.90;;;;;;5135789;27;20043;-76
2023/08/26 04:35:50;;;;;;;8.77;7.50;;;14.00;99.90;;;;;;5135709;27;20047;-76
2023/08/26 04:38:16;;;;;;;7.53;6.82;;;14.00;99.90;;;;;;5117369;27;20039;-77
2023/08/26 04:40:45;;;;;;;7.47;6.45;;;14.00;99.90;;;;;;5135441;27;20074;-76
2023/08/26 04:43:11;;;;;;;5.78;5.18;;;14.00;99.90;;;;;;5135885;27;20050;-78
2023/08/26 04:45:37;;;;;;;7.22;5.88;;;14.00;99.90;;;;;;5135485;27;20035;-75
2023/08/26 04:48:08;;;;;;;6.10;5.20;;;14.00;99.90;;;;;;5117282;27;20039;-75
2023/08/26 04:50:34;;;;;;;6.50;5.82;;;14.10;99.90;;;;;;5136036;27;20035;-76
2023/08/26 04:53:01;;;;;;;5.80;5.13;;;14.10;99.90;;;;;;5117441;27;20039;-77
2023/08/26 04:55:26;;;;;;;6.95;5.50;;;14.00;99.90;;;;;;5116847;27;20368;-75
2023/08/26 04:57:53;;;;;;;6.28;5.68;;;14.10;99.90;;;;;;5135488;27;20047;-76
2023/08/26 05:00:19;;;;;;;7.35;5.97;;;14.20;99.90;;;;;;5135197;27;20054;-76
2023/08/26 05:02:44;;;;;;;8.65;6.25;;;14.20;99.90;;;;;;5135571;27;20039;-76
2023/08/26 05:05:10;;;;;;;9.77;7.28;;;14.30;99.90;;;;;;5135127;27;20099;-76
2023/08/26 05:07:36;;;;;;;9.63;7.22;;;14.40;99.90;;;;;;5135389;27;20107;-77
2023/08/26 05:10:07;;;;;;;9.30;6.75;;;14.50;99.90;;;;;;5135034;27;20047;-79
2023/08/26 05:12:32;;;;;;;7.20;6.50;;;14.60;99.90;;;;;;5135774;27;20043;-75
2023/08/26 05:14:58;;;;;;;9.50;7.05;;;14.60;99.90;;;;;;5134863;27;20483;-73
2023/08/26 05:17:24;;;;;;;10.07;6.53;;;14.70;99.90;;;;;;5117004;27;20510;-71
2023/08/26 05:19:50;;;;;;;7.53;6.82;;;14.70;99.90;;;;;;5116620;27;20054;-74
2023/08/26 05:22:16;;;;;;;7.95;6.53;;;14.80;99.90;;;;;;5116643;27;20118;-73
2023/08/26 05:24:41;;;;;;;6.75;6.05;;;14.80;99.90;;;;;;5134645;27;20122;-71
2023/08/26 05:27:07;;;;;;;9.82;7.72;;;14.90;99.90;;;;;;5134645;27;20095;-76
2023/08/26 05:29:33;;;;;;;8.13;6.28;;;14.90;99.90;;;;;;5135245;27;20138;-70
2023/08/26 05:31:59;;;;;;;8.13;6.50;;;14.90;99.90;;;;;;5134718;27;20050;-77
2023/08/26 05:34:25;;;;;;;7.57;5.78;;;15.00;99.90;;;;;;5134806;27;20039;-76
2023/08/26 05:36:51;;;;;;;7.75;6.22;;;15.00;99.90;;;;;;5134083;27;20043;-80
2023/08/26 05:39:17;;;;;;;8.50;6.13;;;15.10;99.90;;;;;;5134535;27;20043;-79
2023/08/26 05:41:42;;;;;;;8.32;6.18;;;15.10;99.90;;;;;;5134381;27;20127;-75
2023/08/26 05:44:08;;;;;;;9.05;6.05;;;15.10;99.90;;;;;;5134677;27;20054;-80
2023/08/26 05:46:34;;;;;;;6.05;5.45;;;15.10;99.90;;;;;;5134315;27;20364;-77
2023/08/26 05:48:59;;;;;;;6.57;5.82;;;15.20;99.90;;;;;;5134131;27;20490;-77
2023/08/26 05:51:25;;;;;;;8.45;6.07;;;15.20;99.90;;;;;;5134543;27;20054;-76
2023/08/26 05:53:50;;;;;;;9.13;5.88;;;15.20;99.90;;;;;;5115929;27;20114;-78
2023/08/26 05:56:16;;;;;;;8.82;5.93;;;15.30;99.90;;;;;;5134151;27;20476;-78
2023/08/26 05:58:42;;;;;;;7.72;6.75;;;15.30;99.90;;;;;;5133998;27;20386;-78
2023/08/26 06:01:07;;;;;;;7.57;6.63;;;15.30;99.90;;;;;;5133764;27;20047;-78
2023/08/26 06:03:33;;;;;;;8.63;7.10;;;15.40;99.90;;;;;;5133861;27;20049;-76
2023/08/26 06:05:59;;;;;;;8.55;6.65;;;15.40;99.90;;;;;;5133354;27;20039;-76
2023/08/26 06:08:24;;;;;;;10.93;7.43;;;15.40;99.90;;;;;;5133869;27;20134;-77
2023/08/26 06:10:57;;;;;;;11.80;7.63;;;15.40;99.90;;;;;;5133938;27;20047;-77
2023/08/26 06:13:23;;;;;;;9.63;7.70;;;15.40;99.90;;;;;;5116042;27;20361;-77
2023/08/26 06:15:58;;;;;;;8.45;6.82;;;15.40;99.90;;;;;;5133252;27;20126;-78
2023/08/26 06:18:25;;;;;;;8.93;7.50;;;15.50;99.90;;;;;;5133717;27;20104;-76
2023/08/26 06:20:51;;;;;;;10.93;8.02;;;15.50;99.90;;;;;;5133653;27;20058;-77
2023/08/26 06:23:20;;;;;;;10.45;7.50;;;15.60;99.90;;;;;;5133742;27;20050;-76
2023/08/26 06:25:56;;;;;;;10.77;8.00;;;15.60;99.90;;;;;;5133614;27;20051;-77
2023/08/26 06:28:23;;;;;;;7.32;5.85;;;15.80;99.90;;;;;;5098247;27;20050;-78
2023/08/26 06:30:49;;;;;;;9.57;6.85;;;15.80;99.90;;;;;;5133648;27;20086;-76
2023/08/26 06:33:15;;;;;;;8.77;7.63;;;15.80;99.90;;;;;;5133466;27;20051;-80
2023/08/26 06:35:46;;;;;;;7.10;6.10;;;15.90;99.90;;;;;;5134002;27;20095;-76
2023/08/26 06:38:12;;;;;;;8.38;6.72;;;15.90;99.90;;;;;;5133324;27;20524;-77
2023/08/26 06:40:37;;;;;;;7.88;6.43;;;15.90;99.90;;;;;;5134353;28;20139;-77
2023/08/26 06:43:03;;;;;;;7.30;5.97;;;15.90;99.90;;;;;;5133964;28;20050;-76
2023/08/26 06:45:30;;;;;;;7.40;6.45;;;15.90;99.90;;;;;;5133514;28;20047;-77
2023/08/26 06:47:57;;;;;;;12.23;6.82;;;15.90;99.90;;;;;;5115564;28;20083;-74
2023/08/26 06:50:23;;;;;;;9.75;7.03;;;15.90;99.90;;;;;;5133049;28;20385;-75
2023/08/26 06:52:49;;;;;;;10.63;6.30;;;16.00;99.90;;;;;;5115219;28;20043;-73
2023/08/26 06:55:17;;;;;;;8.10;6.47;;;16.00;99.90;;;;;;5133988;28;20054;-77
2023/08/26 06:57:43;;;;;;;8.27;7.22;;;16.00;99.90;;;;;;5115170;28;20059;-71
2023/08/26 07:00:09;;;;;;;8.88;6.57;;;16.00;99.90;;;;;;5134050;28;20130;-74
2023/08/26 07:02:35;;;;;;;8.32;6.13;;;16.10;99.90;;;;;;5135726;28;20042;-77
2023/08/26 07:05:01;;;;;;;9.18;6.55;;;16.20;99.90;;;;;;5115760;28;20047;-76
2023/08/26 07:07:26;;;;;;;9.85;7.43;;;16.20;99.90;;;;;;5134134;28;20074;-76
2023/08/26 07:09:52;;;;;;;8.25;7.05;;;16.30;99.90;;;;;;5134791;28;20078;-78
2023/08/26 07:12:18;;;;;;;9.98;7.80;;;16.10;99.90;;;;;;5133866;28;20470;-76
2023/08/26 07:14:44;;;;;;;9.73;8.57;;;16.50;99.90;;;;;;5115399;28;20062;-77
2023/08/26 07:17:09;;;;;;;12.23;9.40;;;16.60;99.90;;;;;;5133981;27;20055;-78
2023/08/26 07:19:35;;;;;;;12.90;9.20;;;16.70;99.90;;;;;;5136899;27;20066;-76
2023/08/26 07:22:01;;;;;;;9.82;7.82;;;16.90;99.90;;;;;;5137346;27;20066;-76
2023/08/26 07:24:26;;;;;;;12.82;9.30;;;17.40;99.90;;;;;;5136837;27;20045;-78
2023/08/26 07:26:52;;;;;;;19.70;9.52;;;17.50;99.90;;;;;;5136888;27;20123;-76
2023/08/26 07:29:17;;;;;;;13.93;9.63;;;17.60;99.90;;;;;;5136607;27;20471;-76
2023/08/26 07:31:43;;;;;;;15.73;10.50;;;17.60;99.90;;;;;;5118633;27;20180;-76
2023/08/26 07:34:09;;;;;;;16.60;12.00;;;17.50;99.90;;;;;;5136612;27;20054;-77
2023/08/26 07:36:35;;;;;;;14.13;11.15;;;17.50;99.90;;;;;;5136545;27;20086;-76
2023/08/26 07:39:00;;;;;;;15.10;13.02;;;17.40;99.90;;;;;;5136699;27;20070;-76
2023/08/26 07:41:26;;;;;;;15.25;12.95;;;17.30;99.90;;;;;;5137022;27;20043;-76
2023/08/26 07:43:52;;;;;;;21.42;13.63;;;17.20;99.90;;;;;;5136306;27;20581;-77
2023/08/26 07:46:22;;;;;;;19.58;15.27;;;17.20;99.90;;;;;;5136703;27;20045;-76
2023/08/26 07:48:47;;;;;;;21.75;14.48;;;17.40;99.90;;;;;;5136602;27;20051;-76
2023/08/26 07:51:13;;;;;;;17.10;13.73;;;17.50;99.90;;;;;;5136254;27;20535;-76
2023/08/26 07:53:39;;;;;;;17.27;14.02;;;17.80;99.90;;;;;;5136193;27;20035;-77
2023/08/26 07:56:04;;;;;;;21.27;16.15;;;18.20;99.90;;;;;;5136467;27;20180;-77
2023/08/26 07:58:30;;;;;;;15.52;13.63;;;18.60;99.90;;;;;;5118317;27;20378;-76
2023/08/26 08:00:56;;;;;;;15.50;13.57;;;19.00;99.90;;;;;;5136124;27;20138;-77
2023/08/26 08:03:21;;;;;;;19.77;14.50;;;19.50;99.90;;;;;;5135976;27;20043;-75
2023/08/26 08:05:47;;;;;;;18.55;14.93;;;19.70;99.90;;;;;;5136296;27;20048;-76
2023/08/26 08:08:13;;;;;;;19.00;16.48;;;19.60;99.90;;;;;;5136589;27;20464;-75
2023/08/26 08:10:38;;;;;;;17.90;16.00;;;19.40;99.90;;;;;;5136758;27;20066;-75
2023/08/26 08:13:05;;;;;;;18.50;15.15;;;19.20;99.90;;;;;;5136066;27;20475;-78
2023/08/26 08:15:31;;;;;;;20.58;14.88;;;19.00;99.90;;;;;;5136102;27;20054;-77
2023/08/26 08:17:56;;;;;;;17.80;14.95;;;18.90;99.90;;;;;;5136328;27;20055;-75
2023/08/26 08:20:22;;;;;;;19.42;14.73;;;19.30;99.90;;;;;;5135967;27;20051;-77
2023/08/26 08:22:48;;;;;;;19.60;14.40;;;20.10;99.90;;;;;;5135877;27;20035;-76
2023/08/26 08:25:15;;;;;;;16.48;14.38;;;20.70;99.90;;;;;;5135821;27;20047;-75
2023/08/26 08:27:41;;;;;;;20.42;13.40;;;21.60;99.90;;;;;;5135661;27;20511;-77
2023/08/26 08:30:07;;;;;;;15.05;13.50;;;22.70;99.90;;;;;;5135421;27;20051;-75
2023/08/26 08:32:33;;;;;;;16.23;12.35;;;23.40;99.90;;;;;;5135911;27;20035;-76
2023/08/26 08:34:59;;;;;;;14.88;12.02;;;24.00;99.90;;;;;;5136121;27;20483;-76
2023/08/26 08:37:25;;;;;;;12.88;11.48;;;24.50;99.90;;;;;;5136047;27;20047;-78
2023/08/26 08:39:51;;;;;;;13.43;10.80;;;24.70;99.90;;;;;;5135595;27;20062;-79
2023/08/26 08:42:18;;;;;;;13.27;9.82;;;24.70;99.90;;;;;;5117928;27;20043;-76
2023/08/26 08:44:46;;;;;;;19.08;10.07;;;24.50;99.90;;;;;;5135442;27;20062;-78
2023/08/26 08:47:13;;;;;;;11.45;9.43;;;24.10;99.90;;;;;;5135477;27;20123;-77
2023/08/26 08:49:41;;;;;;;9.93;8.90;;;23.70;99.90;;;;;;5135292;27;20051;-76
2023/08/26 08:52:07;;;;;;;10.00;8.88;;;23.50;99.90;;;;;;5135568;27;20046;-79
2023/08/26 08:54:34;;;;;;;8.50;7.72;;;22.90;99.90;;;;;;5135291;27;20482;-76
2023/08/26 08:57:03;;;;;;;12.70;8.90;;;22.20;99.90;;;;;;5135656;27;20495;-77
2023/08/26 08:59:32;;;;;;;9.45;8.13;;;21.70;99.90;;;;;;5135094;27;20051;-79
2023/08/26 09:01:58;;;;;;;10.02;8.02;;;22.00;99.90;;;;;;5135245;27;20062;-75
2023/08/26 09:04:25;;;;;;;9.55;7.28;;;23.00;99.90;;;;;;5135621;27;20039;-77
2023/08/26 09:06:54;;;;;;;10.30;7.93;;;23.70;99.90;;;;;;5116871;27;20058;-79
2023/08/26 09:09:21;;;;;;;10.55;7.82;;;23.90;99.90;;;;;;5135092;27;20043;-79
2023/08/26 09:11:48;;;;;;;11.77;8.10;;;24.00;99.90;;;;;;5116894;27;20420;-79
2023/08/26 09:14:14;;;;;;;12.85;7.97;;;23.70;99.90;;;;;;5134641;27;20122;-75
2023/08/26 09:16:42;;;;;;;11.77;7.63;;;23.50;99.90;;;;;;5135890;27;20054;-77
2023/08/26 09:19:12;;;;;;;9.10;7.10;;;23.80;99.90;;;;;;5134788;27;20043;-78
2023/08/26 09:21:42;;;;;;;8.43;7.53;;;24.20;99.90;;;;;;5134934;27;20054;-76
2023/08/26 09:24:15;;;;;;;9.68;7.30;;;24.40;99.90;;;;;;5116223;27;20471;-77
2023/08/26 09:26:43;;;;;;;10.13;7.47;;;24.80;99.90;;;;;;5135129;27;20070;-78
2023/08/26 09:29:16;;;;;;;14.40;8.10;;;24.40;99.90;;;;;;5134643;27;20043;-75
2023/08/26 09:31:46;;;;;;;9.88;6.97;;;24.20;99.90;;;;;;5116988;27;20086;-76
2023/08/26 09:34:11;;;;;;;7.97;6.97;;;24.60;99.90;;;;;;5099310;27;20051;-74
2023/08/26 09:36:41;;;;;;;7.50;6.70;;;25.20;99.90;;;;;;5134805;27;20095;-78
2023/08/26 09:39:13;;;;;;;7.18;6.47;;;25.70;99.90;;;;;;5134425;27;20063;-76
2023/08/26 09:41:41;;;;;;;7.83;6.00;;;25.80;99.90;;;;;;5115281;27;20039;-76
2023/08/26 09:44:12;;;;;;;7.57;5.78;;;26.10;99.90;;;;;;5133829;27;20456;-76
2023/08/26 09:46:39;;;;;;;11.10;6.13;;;26.50;99.90;;;;;;5134790;27;20090;-77
2023/08/26 09:49:05;;;;;;;7.63;6.18;;;25.80;99.90;;;;;;5134215;27;20073;-80
2023/08/26 09:51:32;;;;;;;7.90;7.10;;;25.10;99.90;;;;;;5133681;27;20483;-78
2023/08/26 09:53:59;;;;;;;7.40;6.38;;;24.80;99.90;;;;;;5134627;27;20039;-76
2023/08/26 09:56:28;;;;;;;8.20;5.75;;;25.10;99.90;;;;;;5133677;27;20417;-78
2023/08/26 09:58:56;;;;;;;7.63;5.60;;;25.40;99.90;;;;;;5134008;27;20054;-77
2023/08/26 10:01:24;;;;;;;8.35;6.38;;;25.10;99.90;;;;;;5134456;27;20047;-76
2023/08/26 10:04:13;;;;;;;7.90;5.72;;;25.30;99.90;;;;;;5133956;27;20039;-79
2023/08/26 10:06:46;;;;;;;7.22;5.57;;;25.60;99.90;;;;;;5134442;27;20212;-76
2023/08/26 10:09:37;;;;;;;7.57;5.32;;;25.10;99.90;;;;;;5134577;27;20055;-77
2023/08/26 10:12:10;;;;;;;6.00;5.10;;;24.60;99.90;;;;;;5091894;27;20061;-75
2023/08/26 10:14:36;;;;;;;;;;;23.90;99.90;;;;;;5134233;27;20046;-75
2023/08/26 10:17:07;;;;;;;7.50;5.20;;;23.30;99.90;;;;;;5134500;27;19931;-82
2023/08/26 10:19:34;;;;;;;5.93;5.38;;;23.00;99.90;;;;;;5133866;27;20491;-75
2023/08/26 10:22:01;;;;;;;10.68;5.05;;;22.60;99.90;;;;;;5115627;27;20480;-78
2023/08/26 10:24:28;;;;;;;6.35;5.85;;;22.30;99.90;;;;;;5133908;27;20047;-77
2023/08/26 10:26:54;;;;;;;10.23;5.43;;;22.10;99.90;;;;;;5134239;27;20065;-80
2023/08/26 10:29:20;;;;;;;9.00;5.50;;;22.20;99.90;;;;;;5133261;27;20086;-80
2023/08/26 10:31:46;;;;;;;9.77;4.88;;;22.80;99.90;;;;;;5133657;27;20049;-78
2023/08/26 10:34:15;;;;;;;9.10;5.07;;;22.90;99.90;;;;;;5133637;27;20054;-76
2023/08/26 10:36:45;;;;;;;6.25;5.47;;;23.30;99.90;;;;;;5133497;27;20107;-79
2023/08/26 10:39:16;;;;;;;7.82;4.75;;;23.40;99.90;;;;;;5133322;28;20054;-78
2023/08/26 10:42:12;;;;;;;9.27;5.35;;;23.10;99.90;;;;;;5133631;28;20528;-77
2023/08/26 10:44:40;;;;;;;8.20;5.90;;;22.80;99.90;;;;;;5134184;28;20136;-76
2023/08/26 10:47:06;;;;;;;5.30;2.38;;;22.20;99.90;;;;;;5114897;28;20533;-77
2023/08/26 10:49:33;;;;;;;4.57;2.00;;;21.40;99.90;;;;;;5133418;28;20070;-78
2023/08/26 10:52:17;;;;;;;8.20;2.78;;;20.90;99.90;;;;;;5133099;27;20043;-76
2023/08/26 10:54:44;;;;;;;3.72;2.20;;;20.40;99.90;;;;;;5137639;27;20078;-76
2023/08/26 10:57:10;;;;;;;4.82;2.65;;;20.00;99.90;;;;;;5137520;27;20043;-77
2023/08/26 10:59:45;;;;;;;4.78;2.28;;;19.70;99.90;;;;;;5120241;27;20043;-77
2023/08/26 11:02:13;;;;;;;1.85;1.67;;;19.60;99.90;;;;;;5139213;27;20075;-83
2023/08/26 11:04:44;;;;;;;3.65;2.22;;;19.40;99.90;;;;;;5138465;27;20039;-77
2023/08/26 11:07:17;;;;;;;2.05;1.95;;;19.20;99.90;;;;;;5137875;27;20050;-78
2023/08/26 11:09:43;;;;;;;3.20;2.03;;;19.10;99.90;;;;;;5137738;27;20039;-80
2023/08/26 11:12:28;;;;;;;4.20;2.13;;;19.00;99.90;;;;;;5137430;27;20042;-76
2023/08/26 11:15:03;;;;;;;3.60;2.30;;;18.80;99.90;;;;;;5137254;27;20043;-82
2023/08/26 11:17:29;;;;;;;3.22;2.35;;;18.80;99.90;;;;;;5119634;27;20088;-76
2023/08/26 11:19:56;;;;;;;2.83;2.35;;;19.10;99.90;;;;;;5137392;27;20043;-76
2023/08/26 11:22:29;;;;;;;3.15;2.63;;;19.40;99.90;;;;;;5137674;27;20059;-76
2023/08/26 11:24:55;;;;;;;3.53;2.55;;;19.80;99.90;;;;;;5137107;27;20090;-77
2023/08/26 11:27:20;;;;;;;4.78;2.90;;;20.00;99.90;;;;;;5137145;27;20051;-78
2023/08/26 11:29:46;;;;;;;3.53;3.10;;;20.20;99.90;;;;;;5136698;27;20096;-75
2023/08/26 11:32:12;;;;;;;3.00;2.70;;;20.30;99.90;;;;;;5136593;27;20050;-77
2023/08/26 11:34:38;;;;;;;4.75;3.35;;;20.50;99.90;;;;;;5137107;27;20085;-76
2023/08/26 11:37:05;;;;;;;4.07;2.45;;;20.60;99.90;;;;;;5101446;27;20046;-75
2023/08/26 11:39:33;;;;;;;3.30;2.60;;;20.70;99.90;;;;;;5136694;27;20552;-76
2023/08/26 11:41:59;;;;;;;3.63;2.90;;;20.60;99.90;;;;;;5119086;27;20055;-76
2023/08/26 11:44:25;;;;;;;5.55;3.28;;;20.50;99.90;;;;;;5136542;27;20047;-76
2023/08/26 11:46:53;;;;;;;6.75;2.83;;;20.40;99.90;;;;;;5136637;27;20047;-76
2023/08/26 11:49:19;;;;;;;3.97;3.30;;;20.30;99.90;;;;;;5136660;27;20047;-77
2023/08/26 11:51:45;;;;;;;3.58;2.92;;;20.30;99.90;;;;;;5136243;27;20035;-75
2023/08/26 11:54:31;;;;;;;4.15;3.17;;;20.30;99.90;;;;;;5136616;27;20073;-78
2023/08/26 11:56:58;;;;;;;3.42;2.90;;;20.30;99.90;;;;;;5136275;27;20055;-75
2023/08/26 11:59:24;;;;;;;4.43;3.20;;;20.40;99.90;;;;;;5136320;27;20341;-76
2023/08/26 12:01:50;;;;;;;5.10;3.40;;;20.30;99.90;;;;;;5136538;27;20103;-77
2023/08/26 12:04:16;;;;;;;4.05;3.20;;;20.30;99.90;;;;;;5135217;27;20444;-77
2023/08/26 12:06:42;;;;;;;5.60;2.85;;;20.30;99.90;;;;;;5136144;27;20043;-77
2023/08/26 12:09:08;;;;;;;5.10;3.25;;;20.20;99.90;;;;;;5117915;27;20505;-75
2023/08/26 12:11:39;;;;;;;6.53;3.40;;;20.20;99.90;;;;;;5135824;27;20051;-75
2023/08/26 12:14:18;;;;;;;6.88;3.70;;;20.20;99.90;;;;;;5135926;27;20032;-78
2023/08/26 12:16:45;;;;;;;5.65;4.05;;;20.30;99.90;;;;;;5117381;27;20055;-76
2023/08/26 12:19:19;;;;;;;5.18;3.60;;;20.30;99.90;;;;;;5136523;27;20123;-78
2023/08/26 12:21:51;;;;;;;5.00;3.70;;;20.50;99.90;;;;;;5135843;27;20054;-74
2023/08/26 12:24:22;;;;;;;5.00;3.95;;;20.40;99.90;;;;;;5117766;27;20043;-76
2023/08/26 12:26:48;;;;;;;5.65;4.03;;;20.40;99.90;;;;;;5136145;27;20046;-75
2023/08/26 12:29:14;;;;;;;4.72;4.30;;;20.40;99.90;;;;;;5135992;27;20118;-76
2023/08/26 12:31:39;;;;;;;5.25;4.30;;;20.40;99.90;;;;;;5135888;27;20050;-76
2023/08/26 12:34:06;;;;;;;6.13;4.03;;;20.50;99.90;;;;;;5135199;27;20047;-75
2023/08/26 12:36:32;;;;;;;4.60;4.20;;;20.50;99.90;;;;;;5135987;27;20058;-75
2023/08/26 12:38:57;;;;;;;4.68;4.07;;;20.50;99.90;;;;;;5135274;27;20391;-74
2023/08/26 12:41:23;;;;;;;5.82;4.30;;;20.50;99.90;;;;;;5117233;27;20116;-74